createdAt,value
2023-02-24T00:07:45.088Z,25.20
2023-02-24T00:17:48.663Z,24.10
2023-02-24T00:27:56.030Z,25.90
2023-02-24T00:38:01.484Z,27.40
2023-02-24T00:48:10.901Z,27.50
2023-02-24T00:58:14.600Z,26.10
2023-02-24T01:08:21.924Z,26.40
2023-02-24T01:18:28.243Z,27.60
2023-02-24T01:28:31.901Z,27.70
2023-02-24T01:38:43.032Z,28.70
2023-02-24T01:48:48.003Z,30.30
2023-02-24T01:58:54.497Z,30.60
2023-02-24T02:08:58.824Z,31.20
2023-02-24T02:19:26.480Z,34.50
2023-02-24T02:30:02.037Z,35.00
2023-02-24T02:40:22.594Z,35.80
2023-02-24T02:51:04.445Z,35.10
2023-02-24T03:01:18.645Z,36.10
2023-02-24T03:11:24.307Z,36.10
2023-02-24T03:21:39.405Z,35.50
2023-02-24T03:32:09.383Z,34.40
2023-02-24T03:42:19.225Z,32.40
2023-02-24T03:52:29.441Z,30.90
2023-02-24T04:02:38.200Z,30.20
2023-02-24T04:13:02.384Z,30.70
2023-02-24T04:23:14.460Z,33.60
2023-02-24T04:33:18.662Z,34.10
2023-02-24T04:43:22.659Z,31.90
2023-02-24T04:53:30.585Z,26.30
2023-02-24T05:03:37.162Z,24.40
2023-02-24T05:13:40.741Z,24.40
2023-02-24T05:23:47.017Z,23.10
2023-02-24T05:33:59.238Z,22.30
2023-02-24T05:44:12.618Z,20.80
2023-02-24T05:54:23.063Z,19.40
2023-02-24T06:04:46.033Z,18.50
2023-02-24T06:14:53.296Z,17.80
2023-02-24T06:24:58.722Z,17.90
2023-02-24T06:35:04.252Z,17.20
2023-02-24T06:45:09.473Z,15.70
2023-02-24T06:55:28.233Z,15.00
2023-02-24T07:05:34.478Z,14.20
2023-02-24T07:15:40.184Z,12.80
2023-02-24T07:25:46.535Z,11.70
2023-02-24T07:35:52.724Z,11.60
2023-02-24T07:46:01.227Z,11.30
2023-02-24T07:56:16.188Z,10.60
2023-02-24T08:06:39.280Z,10.00
2023-02-24T08:16:50.893Z,9.70
2023-02-24T08:27:06.430Z,9.70
2023-02-24T08:37:15.946Z,8.70
2023-02-24T08:47:21.374Z,8.80
2023-02-24T08:57:27.084Z,8.90
2023-02-24T09:07:41.662Z,8.80
2023-02-24T09:17:46.007Z,7.50
2023-02-24T09:28:17.878Z,7.90
2023-02-24T09:38:42.965Z,8.70
2023-02-24T09:49:05.492Z,7.90
2023-02-24T09:59:27.347Z,8.90
2023-02-24T10:09:42.546Z,8.90
2023-02-24T10:19:46.241Z,10.80
2023-02-24T10:30:19.952Z,10.90
2023-02-24T10:40:46.358Z,12.00
2023-02-24T10:51:08.600Z,10.60
2023-02-24T11:01:21.551Z,10.20
2023-02-24T11:11:55.886Z,8.60
2023-02-24T11:22:00.251Z,8.40
2023-02-24T11:33:01.623Z,8.60
2023-02-24T11:43:14.099Z,5.60
2023-02-24T11:53:20.718Z,8.30
2023-02-24T12:03:47.506Z,6.60
2023-02-24T12:14:00.239Z,6.80
2023-02-24T12:24:08.989Z,8.50
2023-02-24T12:34:23.531Z,7.10
2023-02-24T12:44:46.286Z,6.80
2023-02-24T12:55:23.215Z,4.60
2023-02-24T13:05:44.688Z,5.00
2023-02-24T13:15:59.203Z,8.90
2023-02-24T13:26:03.917Z,5.60
2023-02-24T13:36:11.061Z,6.10
2023-02-24T13:46:21.385Z,5.50
2023-02-24T13:56:43.006Z,5.30
2023-02-24T14:06:54.268Z,9.90
2023-02-24T14:16:57.915Z,4.30
2023-02-24T14:27:05.362Z,6.10
2023-02-24T14:37:17.470Z,5.70
2023-02-24T14:47:24.495Z,4.30
2023-02-24T14:57:37.498Z,4.50
2023-02-24T15:07:47.657Z,4.60
2023-02-24T15:18:04.434Z,5.30
2023-02-24T15:28:25.246Z,6.00
2023-02-24T15:38:36.211Z,11.50
2023-02-24T15:48:42.998Z,5.40
2023-02-24T15:58:48.268Z,6.00
2023-02-24T16:09:00.208Z,15.00
2023-02-24T16:19:04.766Z,7.80
2023-02-24T16:29:14.431Z,12.30
2023-02-24T16:39:18.316Z,18.50
2023-02-24T16:49:22.783Z,13.30
2023-02-24T16:59:30.462Z,22.50
2023-02-24T17:09:34.577Z,11.00
2023-02-24T17:19:38.854Z,11.60
2023-02-24T17:29:42.376Z,7.10
2023-02-24T17:39:45.931Z,6.40
2023-02-24T17:49:51.547Z,6.50
2023-02-24T17:59:55.827Z,7.80
2023-02-24T18:10:00.002Z,7.50
2023-02-24T18:20:05.282Z,8.30
2023-02-24T18:30:11.095Z,8.80
2023-02-24T18:40:15.730Z,10.00
2023-02-24T18:50:20.813Z,10.40
2023-02-24T19:00:26.220Z,10.90
2023-02-24T19:10:31.687Z,8.50
2023-02-24T19:20:35.380Z,10.40
2023-02-24T19:30:40.238Z,11.40
2023-02-24T19:40:45.072Z,10.50
2023-02-24T19:50:48.760Z,11.10
2023-02-24T20:00:52.463Z,11.90
2023-02-24T20:11:00.938Z,9.40
2023-02-24T20:21:05.200Z,10.70
2023-02-24T20:31:18.776Z,11.00
2023-02-24T20:41:22.540Z,9.50
2023-02-24T20:51:27.442Z,11.70
2023-02-24T21:01:37.185Z,7.50
2023-02-24T21:11:43.701Z,11.20
2023-02-24T21:21:48.954Z,12.10
2023-02-24T21:31:52.931Z,10.80
2023-02-24T21:41:56.805Z,13.00
2023-02-24T21:52:00.978Z,10.00
2023-02-24T22:02:04.674Z,9.70
2023-02-24T22:12:08.580Z,9.90
2023-02-24T22:22:12.207Z,10.00
2023-02-24T22:32:15.930Z,11.70
2023-02-24T22:42:19.495Z,10.20
2023-02-24T22:52:23.075Z,11.90
2023-02-24T23:02:27.614Z,12.90
2023-02-24T23:12:33.298Z,11.90
2023-02-24T23:22:36.850Z,11.60
2023-02-24T23:32:45.308Z,12.70
2023-02-24T23:42:48.933Z,11.70
2023-02-24T23:52:54.618Z,11.00
